createdAt,value
2023-02-07T00:01:31.207Z,7.38
2023-02-07T00:04:01.878Z,7.18
2023-02-07T00:06:33.004Z,7.43
2023-02-07T00:09:08.469Z,7.07
2023-02-07T00:11:40.918Z,6.72
2023-02-07T00:14:12.462Z,7.40
2023-02-07T00:16:43.635Z,7.85
2023-02-07T00:19:13.916Z,7.43
2023-02-07T00:21:43.799Z,8.15
2023-02-07T00:24:15.670Z,7.55
2023-02-07T00:26:47.355Z,8.43
2023-02-07T00:29:17.851Z,9.63
2023-02-07T00:31:48.046Z,7.43
2023-02-07T00:34:18.628Z,7.72
2023-02-07T00:36:48.548Z,8.35
2023-02-07T00:39:20.657Z,7.20
2023-02-07T00:41:50.998Z,6.88
2023-02-07T00:44:21.465Z,7.25
2023-02-07T00:46:53.799Z,7.80
2023-02-07T00:49:23.760Z,8.02
2023-02-07T00:51:53.921Z,7.00
2023-02-07T00:54:25.122Z,7.35
2023-02-07T00:56:55.446Z,7.53
2023-02-07T00:59:26.066Z,5.80
2023-02-07T01:01:56.087Z,6.43
2023-02-07T01:04:26.091Z,6.65
2023-02-07T01:06:55.787Z,6.95
2023-02-07T01:09:28.957Z,5.63
2023-02-07T01:11:59.279Z,5.50
2023-02-07T01:14:29.062Z,5.38
2023-02-07T01:16:59.259Z,5.82
2023-02-07T01:19:30.023Z,5.32
2023-02-07T01:22:00.759Z,5.30
2023-02-07T01:24:31.544Z,4.93
2023-02-07T01:27:02.754Z,6.85
2023-02-07T01:29:33.624Z,5.60
2023-02-07T01:32:03.775Z,5.25
2023-02-07T01:34:33.316Z,6.40
2023-02-07T01:37:03.607Z,5.70
2023-02-07T01:39:37.115Z,4.77
2023-02-07T01:42:06.966Z,5.40
2023-02-07T01:45:03.070Z,8.02
2023-02-07T01:47:34.725Z,6.18
2023-02-07T01:50:05.392Z,6.05
2023-02-07T01:52:39.788Z,8.63
2023-02-07T01:55:20.013Z,7.35
2023-02-07T01:57:52.600Z,5.97
2023-02-07T02:00:23.946Z,5.78
2023-02-07T02:02:53.493Z,5.65
2023-02-07T02:05:24.484Z,5.40
2023-02-07T02:07:54.419Z,5.90
2023-02-07T02:10:37.366Z,6.03
2023-02-07T02:13:23.454Z,6.35
2023-02-07T02:16:01.864Z,5.93
2023-02-07T02:18:54.160Z,7.57
2023-02-07T02:22:07.883Z,7.93
2023-02-07T02:25:05.556Z,6.18
2023-02-07T02:28:01.430Z,6.43
2023-02-07T02:30:57.753Z,6.35
2023-02-07T02:33:48.262Z,7.05
2023-02-07T02:36:29.464Z,5.43
2023-02-07T02:39:10.106Z,6.57
2023-02-07T02:41:50.249Z,5.97
2023-02-07T02:44:28.656Z,5.28
2023-02-07T02:47:01.544Z,4.95
2023-02-07T02:49:36.066Z,5.88
2023-02-07T02:52:06.507Z,7.70
2023-02-07T02:54:38.781Z,9.20
2023-02-07T02:57:51.706Z,6.03
2023-02-07T03:00:38.790Z,5.65
2023-02-07T03:03:44.909Z,5.88
2023-02-07T03:06:27.891Z,6.40
2023-02-07T03:09:12.141Z,7.60
2023-02-07T03:11:51.914Z,6.38
2023-02-07T03:14:31.860Z,6.72
2023-02-07T03:17:15.475Z,6.25
2023-02-07T03:19:50.244Z,5.80
2023-02-07T03:22:25.578Z,5.07
2023-02-07T03:24:59.604Z,5.68
2023-02-07T03:27:33.154Z,5.47
2023-02-07T03:30:06.956Z,6.22
2023-02-07T03:32:42.346Z,6.30
2023-02-07T03:35:17.815Z,5.90
2023-02-07T03:37:53.818Z,7.40
2023-02-07T03:40:27.854Z,8.30
2023-02-07T03:43:04.285Z,7.32
2023-02-07T03:45:34.247Z,5.95
2023-02-07T03:48:04.530Z,7.78
2023-02-07T03:50:37.617Z,8.07
2023-02-07T03:53:09.621Z,6.55
2023-02-07T03:55:39.708Z,7.65
2023-02-07T03:58:10.407Z,7.72
2023-02-07T04:00:42.713Z,6.88
2023-02-07T04:03:13.069Z,8.30
2023-02-07T04:05:43.226Z,8.10
2023-02-07T04:08:14.779Z,8.65
2023-02-07T04:10:44.970Z,9.35
2023-02-07T04:13:15.181Z,8.57
2023-02-07T04:15:45.273Z,9.38
2023-02-07T04:18:15.888Z,9.73
2023-02-07T04:20:45.761Z,10.23
2023-02-07T04:23:17.280Z,10.30
2023-02-07T04:25:47.237Z,8.95
2023-02-07T04:28:17.805Z,9.57
2023-02-07T04:30:48.740Z,8.77
2023-02-07T04:33:21.237Z,10.02
2023-02-07T04:35:57.510Z,9.87
2023-02-07T04:38:29.382Z,9.57
2023-02-07T04:41:03.322Z,10.35
2023-02-07T04:43:34.214Z,11.88
2023-02-07T04:46:06.795Z,12.40
2023-02-07T04:48:37.973Z,11.88
2023-02-07T04:51:08.183Z,10.45
2023-02-07T04:53:39.277Z,8.88
2023-02-07T04:56:09.499Z,9.85
2023-02-07T04:58:39.435Z,8.25
2023-02-07T05:01:09.675Z,8.95
2023-02-07T05:03:40.396Z,9.73
2023-02-07T05:06:10.730Z,8.82
2023-02-07T05:08:41.762Z,10.00
2023-02-07T05:11:11.572Z,12.57
2023-02-07T05:13:41.129Z,11.38
2023-02-07T05:16:10.672Z,11.50
2023-02-07T05:18:40.095Z,12.20
2023-02-07T05:21:09.725Z,12.43
2023-02-07T05:23:38.989Z,12.35
2023-02-07T05:26:10.175Z,12.55
2023-02-07T05:28:40.234Z,11.73
2023-02-07T05:31:12.658Z,12.43
2023-02-07T05:33:42.178Z,15.43
2023-02-07T05:36:12.048Z,15.52
2023-02-07T05:38:41.882Z,16.27
2023-02-07T05:41:13.425Z,15.30
2023-02-07T05:43:43.455Z,16.23
2023-02-07T05:46:13.779Z,16.15
2023-02-07T05:48:43.608Z,15.10
2023-02-07T05:51:13.464Z,14.70
2023-02-07T05:53:45.151Z,15.27
2023-02-07T05:56:16.510Z,15.93
2023-02-07T05:58:46.547Z,16.20
2023-02-07T06:01:20.027Z,17.98
2023-02-07T06:06:22.770Z,16.10
2023-02-07T06:08:52.781Z,18.20
2023-02-07T06:11:23.962Z,17.05
2023-02-07T06:13:54.276Z,17.60
2023-02-07T06:16:23.909Z,18.33
2023-02-07T06:18:54.370Z,16.85
2023-02-07T06:21:34.668Z,17.55
2023-02-07T06:24:12.985Z,19.50
2023-02-07T06:26:47.099Z,19.83
2023-02-07T06:29:16.914Z,18.98
2023-02-07T06:31:49.002Z,18.42
2023-02-07T06:34:18.866Z,20.15
2023-02-07T06:36:49.251Z,21.45
2023-02-07T06:39:19.092Z,19.98
2023-02-07T06:41:50.037Z,18.65
2023-02-07T06:44:20.208Z,21.55
2023-02-07T06:46:50.342Z,23.55
2023-02-07T06:49:20.692Z,22.15
2023-02-07T06:51:50.671Z,24.13
2023-02-07T06:54:23.493Z,28.07
2023-02-07T06:56:55.645Z,28.98
2023-02-07T06:59:25.609Z,29.60
2023-02-07T07:01:57.977Z,29.20
2023-02-07T07:04:28.559Z,28.88
2023-02-07T07:07:00.970Z,28.15
2023-02-07T07:09:30.949Z,27.52
2023-02-07T07:12:02.780Z,26.48
2023-02-07T07:14:33.394Z,26.48
2023-02-07T07:17:03.689Z,26.08
2023-02-07T07:19:33.298Z,26.17
2023-02-07T07:22:03.259Z,24.77
2023-02-07T07:24:32.966Z,23.17
2023-02-07T07:27:07.118Z,26.05
2023-02-07T07:29:37.149Z,23.63
2023-02-07T07:32:07.659Z,23.08
2023-02-07T07:34:37.618Z,22.52
2023-02-07T07:37:07.554Z,24.77
2023-02-07T07:39:38.541Z,22.95
2023-02-07T07:42:10.390Z,24.48
2023-02-07T07:44:55.861Z,25.27
2023-02-07T07:47:28.007Z,25.88
2023-02-07T07:49:58.714Z,24.45
2023-02-07T07:52:29.129Z,23.60
2023-02-07T07:54:59.437Z,25.52
2023-02-07T07:57:30.767Z,24.83
2023-02-07T08:00:01.676Z,24.33
2023-02-07T08:02:31.051Z,26.30
2023-02-07T08:05:01.594Z,23.95
2023-02-07T08:07:31.583Z,24.23
2023-02-07T08:10:02.533Z,25.25
2023-02-07T08:12:34.378Z,24.35
2023-02-07T08:15:05.258Z,23.85
2023-02-07T08:17:35.680Z,25.30
2023-02-07T08:20:06.782Z,24.80
2023-02-07T08:22:37.369Z,24.63
2023-02-07T08:25:08.869Z,25.23
2023-02-07T08:27:39.892Z,28.38
2023-02-07T08:30:12.313Z,28.70
2023-02-07T08:32:47.932Z,25.10
2023-02-07T08:35:18.425Z,32.25
2023-02-07T08:37:48.442Z,26.48
2023-02-07T08:40:19.123Z,37.03
2023-02-07T08:42:50.047Z,42.92
2023-02-07T08:45:20.497Z,35.15
2023-02-07T08:47:50.857Z,40.03
2023-02-07T08:50:21.328Z,27.67
2023-02-07T08:52:51.843Z,30.08
2023-02-07T08:55:22.095Z,26.58
2023-02-07T08:57:53.533Z,25.85
2023-02-07T09:00:26.146Z,26.25
2023-02-07T09:02:55.871Z,25.98
2023-02-07T09:05:25.887Z,30.17
2023-02-07T09:07:55.707Z,23.10
2023-02-07T09:10:26.348Z,27.23
2023-02-07T09:12:58.079Z,23.30
2023-02-07T09:15:30.213Z,22.65
2023-02-07T09:17:59.809Z,21.80
2023-02-07T09:20:29.057Z,23.10
2023-02-07T09:23:16.486Z,21.83
2023-02-07T09:25:47.595Z,19.77
2023-02-07T09:28:19.679Z,21.15
2023-02-07T09:30:50.598Z,20.08
2023-02-07T09:33:23.325Z,21.88
2023-02-07T09:35:54.802Z,19.23
2023-02-07T09:38:25.956Z,20.63
2023-02-07T09:40:58.063Z,27.50
2023-02-07T09:43:38.845Z,21.30
2023-02-07T09:46:18.973Z,27.40
2023-02-07T09:48:53.443Z,22.80
2023-02-07T09:51:25.683Z,25.65
2023-02-07T09:53:59.823Z,26.20
2023-02-07T09:56:31.414Z,30.35
2023-02-07T09:59:06.476Z,31.92
2023-02-07T10:01:43.958Z,54.63
2023-02-07T10:04:30.745Z,52.13
2023-02-07T10:07:01.898Z,83.80
2023-02-07T10:09:33.769Z,41.63
2023-02-07T10:12:12.880Z,38.20
2023-02-07T10:15:07.081Z,26.30
2023-02-07T10:17:48.407Z,19.70
2023-02-07T10:20:35.476Z,24.02
2023-02-07T10:23:36.161Z,24.92
2023-02-07T10:26:17.245Z,21.38
2023-02-07T10:29:05.539Z,20.35
2023-02-07T10:31:40.224Z,19.85
2023-02-07T10:34:15.480Z,18.73
2023-02-07T10:36:49.452Z,19.63
2023-02-07T10:39:27.074Z,19.02
2023-02-07T10:41:57.766Z,19.77
2023-02-07T10:44:28.784Z,18.15
2023-02-07T10:47:03.967Z,20.23
2023-02-07T10:49:36.775Z,20.40
2023-02-07T10:52:23.851Z,19.42
2023-02-07T10:54:55.183Z,19.33
2023-02-07T10:57:26.222Z,18.83
2023-02-07T11:00:01.382Z,18.98
2023-02-07T11:02:50.696Z,18.95
2023-02-07T11:05:55.846Z,20.35
2023-02-07T11:08:27.731Z,21.98
2023-02-07T11:10:59.652Z,17.33
2023-02-07T11:13:31.196Z,18.85
2023-02-07T11:16:06.207Z,20.27
2023-02-07T11:18:45.696Z,18.75
2023-02-07T11:21:26.770Z,19.73
2023-02-07T11:23:59.612Z,20.23
2023-02-07T11:26:31.413Z,18.77
2023-02-07T11:29:08.648Z,17.63
2023-02-07T11:31:39.655Z,18.90
2023-02-07T11:34:33.062Z,18.60
2023-02-07T11:37:19.352Z,16.95
2023-02-07T11:39:50.041Z,18.35
2023-02-07T11:42:24.347Z,19.20
2023-02-07T11:44:55.254Z,18.85
2023-02-07T11:47:30.119Z,15.20
2023-02-07T11:50:04.161Z,16.00
2023-02-07T11:52:35.680Z,16.55
2023-02-07T11:55:15.224Z,17.30
2023-02-07T11:57:47.078Z,16.27
2023-02-07T12:00:23.781Z,15.07
2023-02-07T12:03:02.561Z,14.68
2023-02-07T12:05:37.616Z,14.90
2023-02-07T12:08:15.971Z,14.50
2023-02-07T12:10:49.264Z,17.48
2023-02-07T12:13:22.563Z,17.85
2023-02-07T12:15:56.452Z,17.52
2023-02-07T12:18:31.166Z,15.55
2023-02-07T12:21:08.264Z,15.10
2023-02-07T12:23:44.632Z,15.30
2023-02-07T12:26:24.586Z,15.90
2023-02-07T12:29:13.450Z,15.45
2023-02-07T12:31:52.428Z,15.93
2023-02-07T12:34:28.997Z,14.80
2023-02-07T12:37:10.692Z,15.27
2023-02-07T12:39:47.166Z,14.10
2023-02-07T12:42:31.382Z,13.55
2023-02-07T12:45:03.180Z,15.23
2023-02-07T12:47:46.192Z,13.05
2023-02-07T12:50:37.695Z,12.83
2023-02-07T12:56:02.602Z,12.07
2023-02-07T12:58:43.355Z,12.15
2023-02-07T13:01:21.380Z,11.88
2023-02-07T13:04:27.525Z,13.00
2023-02-07T13:07:07.599Z,12.68
2023-02-07T13:09:44.444Z,10.80
2023-02-07T13:12:19.096Z,11.88
2023-02-07T13:15:06.046Z,11.05
2023-02-07T13:17:47.247Z,10.18
2023-02-07T13:20:43.559Z,10.15
2023-02-07T13:23:20.159Z,8.68
2023-02-07T13:25:57.929Z,12.25
2023-02-07T13:28:36.085Z,10.82
2023-02-07T13:31:08.090Z,11.45
2023-02-07T13:33:41.541Z,10.35
2023-02-07T13:36:19.151Z,9.88
2023-02-07T13:39:00.609Z,11.90
2023-02-07T13:41:46.439Z,11.80
2023-02-07T13:44:23.769Z,9.35
2023-02-07T13:47:08.668Z,9.60
2023-02-07T13:49:46.026Z,9.25
2023-02-07T13:52:23.984Z,7.57
2023-02-07T13:55:04.805Z,9.95
2023-02-07T13:58:02.270Z,8.77
2023-02-07T14:00:35.290Z,8.77
2023-02-07T14:03:09.630Z,8.05
2023-02-07T14:05:45.354Z,8.48
2023-02-07T14:08:25.920Z,7.95
2023-02-07T14:10:57.664Z,8.82
2023-02-07T14:13:34.633Z,8.82
2023-02-07T14:16:08.817Z,8.93
2023-02-07T14:18:44.388Z,9.48
2023-02-07T14:21:32.556Z,9.52
2023-02-07T14:24:32.326Z,9.23
2023-02-07T14:27:28.099Z,8.98
2023-02-07T14:30:19.632Z,9.02
2023-02-07T14:33:12.055Z,9.10
2023-02-07T14:36:04.498Z,9.23
2023-02-07T14:38:37.957Z,9.65
2023-02-07T14:43:46.208Z,9.02
2023-02-07T14:46:27.259Z,9.15
2023-02-07T14:49:02.956Z,9.63
2023-02-07T14:51:41.210Z,9.43
2023-02-07T14:54:18.469Z,9.80
2023-02-07T14:57:08.029Z,9.38
2023-02-07T14:59:43.132Z,8.65
2023-02-07T15:02:34.164Z,8.93
2023-02-07T15:05:21.407Z,8.32
2023-02-07T15:07:58.769Z,9.93
2023-02-07T15:10:30.470Z,9.25
2023-02-07T15:13:01.137Z,8.63
2023-02-07T15:15:32.883Z,8.38
2023-02-07T15:18:04.789Z,9.65
2023-02-07T15:20:37.855Z,10.75
2023-02-07T15:25:43.334Z,8.70
2023-02-07T15:28:27.290Z,8.63
2023-02-07T15:31:03.282Z,9.23
2023-02-07T15:33:39.617Z,10.38
2023-02-07T15:36:29.304Z,8.40
2023-02-07T15:39:00.206Z,9.05
2023-02-07T15:41:30.543Z,8.57
2023-02-07T15:44:02.101Z,7.85
2023-02-07T15:46:50.312Z,9.95
2023-02-07T15:49:30.788Z,8.15
2023-02-07T15:52:08.055Z,8.33
2023-02-07T15:54:40.722Z,7.75
2023-02-07T15:57:20.160Z,9.10
2023-02-07T15:59:54.021Z,8.10
2023-02-07T16:02:26.894Z,7.63
2023-02-07T16:04:59.675Z,9.10
2023-02-07T16:07:31.593Z,8.88
2023-02-07T16:10:19.978Z,9.05
2023-02-07T16:12:55.763Z,9.38
2023-02-07T16:15:29.042Z,9.82
2023-02-07T16:17:59.640Z,8.40
2023-02-07T16:20:33.029Z,8.90
2023-02-07T16:25:36.057Z,8.98
2023-02-07T16:28:15.821Z,8.70
2023-02-07T16:30:46.012Z,9.35
2023-02-07T16:33:16.379Z,10.48
2023-02-07T16:35:47.748Z,10.20
2023-02-07T16:38:20.226Z,10.52
2023-02-07T16:40:51.533Z,10.57
2023-02-07T16:43:36.025Z,9.65
2023-02-07T16:46:07.271Z,9.10
2023-02-07T16:48:37.410Z,9.30
2023-02-07T16:51:08.460Z,9.43
2023-02-07T16:53:38.119Z,7.90
2023-02-07T16:56:12.106Z,8.05
2023-02-07T16:58:42.620Z,8.88
2023-02-07T17:01:19.360Z,8.80
2023-02-07T17:03:49.552Z,9.95
2023-02-07T17:06:23.444Z,9.80
2023-02-07T17:08:54.412Z,8.45
2023-02-07T17:11:26.747Z,9.40
2023-02-07T17:13:57.662Z,8.60
2023-02-07T17:16:31.308Z,9.52
2023-02-07T17:19:03.426Z,9.55
2023-02-07T17:21:35.647Z,8.30
2023-02-07T17:24:06.692Z,9.37
2023-02-07T17:26:36.984Z,10.35
2023-02-07T17:29:07.509Z,9.15
2023-02-07T17:31:37.395Z,10.20
2023-02-07T17:34:07.492Z,10.07
2023-02-07T17:36:40.369Z,9.82
2023-02-07T17:39:13.552Z,9.50
2023-02-07T17:41:43.649Z,9.15
2023-02-07T17:44:13.824Z,9.95
2023-02-07T17:46:44.121Z,11.20
2023-02-07T17:49:16.076Z,11.82
2023-02-07T17:51:47.105Z,20.48
2023-02-07T17:54:17.754Z,37.53
2023-02-07T17:56:48.258Z,15.15
2023-02-07T17:59:24.623Z,10.93
2023-02-07T18:01:56.471Z,10.07
2023-02-07T18:04:26.397Z,9.73
2023-02-07T18:06:58.980Z,10.77
2023-02-07T18:09:28.940Z,10.50
2023-02-07T18:12:02.268Z,10.93
2023-02-07T18:14:31.797Z,9.93
2023-02-07T18:17:01.944Z,10.18
2023-02-07T18:19:32.668Z,10.48
2023-02-07T18:22:03.841Z,11.75
2023-02-07T18:24:33.247Z,11.25
2023-02-07T18:27:03.253Z,10.38
2023-02-07T18:29:32.456Z,11.13
2023-02-07T18:32:02.444Z,11.25
2023-02-07T18:34:32.882Z,9.55
2023-02-07T18:37:04.546Z,10.20
2023-02-07T18:39:34.411Z,12.75
2023-02-07T18:42:04.545Z,11.07
2023-02-07T18:44:34.081Z,11.52
2023-02-07T18:47:03.619Z,11.63
2023-02-07T18:49:35.141Z,10.73
2023-02-07T18:52:07.390Z,11.32
2023-02-07T18:54:38.829Z,10.50
2023-02-07T18:57:09.694Z,12.07
2023-02-07T18:59:40.233Z,11.18
2023-02-07T19:02:12.877Z,10.93
2023-02-07T19:04:42.708Z,11.03
2023-02-07T19:07:15.472Z,10.80
2023-02-07T19:09:45.802Z,11.77
2023-02-07T19:12:18.498Z,11.65
2023-02-07T19:14:48.192Z,11.75
2023-02-07T19:17:17.717Z,11.65
2023-02-07T19:19:48.330Z,11.88
2023-02-07T19:22:29.962Z,11.63
2023-02-07T19:25:07.058Z,12.95
2023-02-07T19:27:36.663Z,12.65
2023-02-07T19:30:08.532Z,12.55
2023-02-07T19:32:37.885Z,11.00
2023-02-07T19:35:08.035Z,11.95
2023-02-07T19:37:39.132Z,12.10
2023-02-07T19:40:09.750Z,11.55
2023-02-07T19:42:40.006Z,12.63
2023-02-07T19:45:10.186Z,11.27
2023-02-07T19:47:40.611Z,12.65
2023-02-07T19:50:11.417Z,11.75
2023-02-07T19:52:42.816Z,12.63
2023-02-07T19:55:12.793Z,14.27
2023-02-07T19:57:42.846Z,13.88
2023-02-07T20:00:13.833Z,14.00
2023-02-07T20:02:44.154Z,13.57
2023-02-07T20:05:14.110Z,13.63
2023-02-07T20:07:45.592Z,13.75
2023-02-07T20:10:16.377Z,13.13
2023-02-07T20:12:46.622Z,12.15
2023-02-07T20:15:19.237Z,13.40
2023-02-07T20:17:49.296Z,11.30
2023-02-07T20:20:19.403Z,12.93
2023-02-07T20:22:56.113Z,12.82
2023-02-07T20:25:26.680Z,15.30
2023-02-07T20:27:56.265Z,13.90
2023-02-07T20:30:25.931Z,14.60
2023-02-07T20:32:56.174Z,14.20
2023-02-07T20:35:26.009Z,13.20
2023-02-07T20:37:57.452Z,14.80
2023-02-07T20:40:27.595Z,13.82
2023-02-07T20:42:58.100Z,13.25
2023-02-07T20:45:28.837Z,13.15
2023-02-07T20:47:59.723Z,11.82
2023-02-07T20:50:29.750Z,12.98
2023-02-07T20:53:01.430Z,12.98
2023-02-07T20:55:31.375Z,13.02
2023-02-07T20:58:02.375Z,13.55
2023-02-07T21:00:31.586Z,11.77
2023-02-07T21:03:04.477Z,11.40
2023-02-07T21:05:33.958Z,12.50
2023-02-07T21:08:05.061Z,12.07
2023-02-07T21:10:36.513Z,11.60
2023-02-07T21:13:06.144Z,11.80
2023-02-07T21:15:35.552Z,11.55
2023-02-07T21:18:04.817Z,12.40
2023-02-07T21:20:35.568Z,11.93
2023-02-07T21:23:07.691Z,11.80
2023-02-07T21:25:37.557Z,12.68
2023-02-07T21:28:06.942Z,12.00
2023-02-07T21:30:38.092Z,11.73
2023-02-07T21:33:08.435Z,13.10
2023-02-07T21:35:38.045Z,12.75
2023-02-07T21:38:08.912Z,13.07
2023-02-07T21:40:41.003Z,13.35
2023-02-07T21:43:10.777Z,12.65
2023-02-07T21:45:39.981Z,15.35
2023-02-07T21:48:09.726Z,14.00
2023-02-07T21:50:39.337Z,14.80
2023-02-07T21:53:10.963Z,14.10
2023-02-07T21:55:41.869Z,15.38
2023-02-07T21:58:11.863Z,14.88
2023-02-07T22:00:41.691Z,14.48
2023-02-07T22:03:14.154Z,14.80
2023-02-07T22:05:43.858Z,17.00
2023-02-07T22:08:17.005Z,15.30
2023-02-07T22:10:46.682Z,15.77
2023-02-07T22:13:16.074Z,15.02
2023-02-07T22:15:49.633Z,14.02
2023-02-07T22:18:19.548Z,15.02
2023-02-07T22:20:49.110Z,15.98
2023-02-07T22:23:20.201Z,15.63
2023-02-07T22:25:49.418Z,14.45
2023-02-07T22:28:21.829Z,14.52
2023-02-07T22:30:51.614Z,14.43
2023-02-07T22:33:21.747Z,14.55
2023-02-07T22:35:52.213Z,15.48
2023-02-07T22:38:23.763Z,15.32
2023-02-07T22:40:53.842Z,15.98
2023-02-07T22:43:23.944Z,14.80
2023-02-07T22:45:56.060Z,15.65
2023-02-07T22:48:26.543Z,16.27
2023-02-07T22:50:56.524Z,14.95
2023-02-07T22:53:28.688Z,14.98
2023-02-07T22:56:03.099Z,15.48
2023-02-07T22:58:33.029Z,15.38
2023-02-07T23:01:03.245Z,15.13
2023-02-07T23:03:33.556Z,15.85
2023-02-07T23:06:06.161Z,13.95
2023-02-07T23:08:37.613Z,15.02
2023-02-07T23:11:10.271Z,15.50
2023-02-07T23:13:41.157Z,14.35
2023-02-07T23:16:13.583Z,15.43
2023-02-07T23:18:46.784Z,14.80
2023-02-07T23:21:20.122Z,14.80
2023-02-07T23:23:51.682Z,15.20
2023-02-07T23:26:24.170Z,14.32
2023-02-07T23:28:54.635Z,14.80
2023-02-07T23:31:26.395Z,16.35
2023-02-07T23:33:56.674Z,14.82
2023-02-07T23:36:27.282Z,15.85
2023-02-07T23:38:58.953Z,15.82
2023-02-07T23:41:29.493Z,15.85
2023-02-07T23:44:00.557Z,14.98
2023-02-07T23:46:32.983Z,15.00
2023-02-07T23:49:03.325Z,15.13
2023-02-07T23:51:33.721Z,15.52
2023-02-07T23:54:05.657Z,15.07
2023-02-07T23:56:35.662Z,15.07
2023-02-07T23:59:05.651Z,14.85
